Time;durP1;ratioP1;P1;durP2;ratioP2;P2;SDS_P1;SDS_P2;PMS_P1;PMS_P2;Temp;Humidity;BMP_temperature;BMP_pressure;BME280_temperature;BME280_humidity;BME280_pressure;Samples;Min_cycle;Max_cycle;Signal;HPM_P1;HPM_P2
2022/04/21 00:00:34;;;;;;;25.07;12.27;;;5.20;99.90;;;;;;4258534;27;21142;-52
2022/04/21 00:02:37;;;;;;;28.03;13.00;;;5.20;99.90;;;;;;4261814;27;20295;-51
2022/04/21 00:04:38;;;;;;;21.87;12.80;;;5.10;99.90;;;;;;4275438;27;20262;-51
2022/04/21 00:06:39;;;;;;;21.43;11.83;;;5.10;99.90;;;;;;4274293;27;20652;-54
2022/04/21 00:08:41;;;;;;;19.23;11.73;;;5.00;99.90;;;;;;4275093;27;20818;-54
2022/04/21 00:10:42;;;;;;;19.73;11.63;;;5.00;99.90;;;;;;4274404;27;20266;-53
2022/04/21 00:12:44;;;;;;;21.60;11.87;;;5.00;99.90;;;;;;4273986;27;20323;-55
2022/04/21 00:14:45;;;;;;;20.17;11.90;;;4.90;99.90;;;;;;4275346;27;20294;-57
2022/04/21 00:16:47;;;;;;;20.00;11.20;;;4.90;99.90;;;;;;4272949;27;20889;-52
2022/04/21 00:18:48;;;;;;;20.03;11.23;;;4.90;99.90;;;;;;4274765;27;20283;-54
2022/04/21 00:20:49;;;;;;;20.33;11.77;;;4.80;99.90;;;;;;4273119;27;20299;-56
2022/04/21 00:25:10;;;;;;;17.67;11.10;;;4.80;99.90;;;;;;4257171;27;20319;-55
2022/04/21 00:27:11;;;;;;;21.30;11.13;;;4.80;99.90;;;;;;4257023;27;20386;-57
2022/04/21 00:29:13;;;;;;;20.40;11.63;;;4.70;99.90;;;;;;4256984;27;20311;-51
2022/04/21 00:31:14;;;;;;;17.37;10.97;;;4.70;99.90;;;;;;4258486;27;20335;-50
2022/04/21 00:33:16;;;;;;;17.93;11.23;;;4.60;99.90;;;;;;4256687;27;20319;-54
2022/04/21 00:35:18;;;;;;;22.17;11.23;;;4.60;99.90;;;;;;4258488;27;20750;-53
2022/04/21 00:37:19;;;;;;;19.83;12.07;;;4.60;99.90;;;;;;4237809;27;20264;-54
2022/04/21 00:39:21;;;;;;;20.20;11.70;;;4.60;99.90;;;;;;4257981;27;20318;-55
2022/04/21 00:41:22;;;;;;;22.60;11.43;;;4.60;99.90;;;;;;4256906;27;20271;-55
2022/04/21 00:43:23;;;;;;;18.67;11.07;;;4.50;99.90;;;;;;4257547;27;20258;-54
2022/04/21 00:45:25;;;;;;;22.03;11.47;;;4.50;99.90;;;;;;4240271;27;20961;-51
2022/04/21 00:47:26;;;;;;;16.07;10.40;;;4.50;99.90;;;;;;4262516;27;20316;-54
2022/04/21 00:49:28;;;;;;;14.80;10.23;;;4.50;99.90;;;;;;4263315;27;20711;-56
2022/04/21 00:51:31;;;;;;;15.53;10.60;;;4.50;99.90;;;;;;4262354;27;20275;-52
2022/04/21 00:53:32;;;;;;;18.57;11.13;;;4.40;99.90;;;;;;4263989;27;20374;-53
2022/04/21 00:55:36;;;;;;;16.93;10.70;;;4.40;99.90;;;;;;4262511;27;20290;-56
2022/04/21 00:57:40;;;;;;;18.83;10.47;;;4.40;99.90;;;;;;4271219;27;20290;-54
2022/04/21 00:59:44;;;;;;;19.60;10.53;;;4.30;99.90;;;;;;4280035;27;21082;-51
2022/04/21 01:04:05;;;;;;;15.40;9.77;;;4.40;99.90;;;;;;4280813;27;20274;-55
2022/04/21 01:06:06;;;;;;;15.17;9.23;;;4.30;99.90;;;;;;4280260;27;20274;-55
2022/04/21 01:08:08;;;;;;;15.27;8.83;;;4.40;99.90;;;;;;4279417;27;20322;-53
2022/04/21 01:10:10;;;;;;;15.50;9.83;;;4.40;99.90;;;;;;4280590;27;20303;-54
2022/04/21 01:12:14;;;;;;;14.27;9.20;;;4.40;99.90;;;;;;4279647;27;20269;-51
2022/04/21 01:14:15;;;;;;;13.23;9.07;;;4.40;99.90;;;;;;4280026;27;20274;-53
2022/04/21 01:16:16;;;;;;;12.40;8.83;;;4.40;99.90;;;;;;4271957;27;20318;-52
2022/04/21 01:18:26;;;;;;;17.80;9.50;;;4.40;99.90;;;;;;4262910;27;20754;-57
2022/04/21 01:20:28;;;;;;;13.10;9.20;;;4.40;99.90;;;;;;4262502;27;20266;-56
2022/04/21 01:22:29;;;;;;;16.37;9.50;;;4.40;99.90;;;;;;4262273;27;20053;-54
2022/04/21 01:24:30;;;;;;;17.50;9.40;;;4.40;99.90;;;;;;4262803;27;20354;-58
2022/04/21 01:26:37;;;;;;;16.00;8.70;;;4.30;99.90;;;;;;4262838;27;20717;-56
2022/04/21 01:28:38;;;;;;;14.43;8.50;;;4.30;99.90;;;;;;4262611;27;20287;-55
2022/04/21 01:30:40;;;;;;;18.10;9.27;;;4.40;99.90;;;;;;4261788;27;20362;-52
2022/04/21 01:32:43;;;;;;;13.43;8.77;;;4.30;99.90;;;;;;4263534;27;20262;-55
2022/04/21 01:34:44;;;;;;;12.97;8.50;;;4.30;99.90;;;;;;4262443;27;20294;-53
2022/04/21 01:41:24;;;;;;;14.20;8.10;;;4.30;99.90;;;;;;4263880;27;20291;-56
2022/04/21 01:43:26;;;;;;;16.10;8.60;;;4.20;99.90;;;;;;4261774;27;20278;-57
2022/04/21 01:45:27;;;;;;;14.73;8.40;;;4.20;99.90;;;;;;4262536;27;20334;-52
2022/04/21 01:47:28;;;;;;;21.73;8.97;;;4.20;99.90;;;;;;4261731;27;20267;-56
2022/04/21 01:49:29;;;;;;;12.23;8.50;;;4.20;99.90;;;;;;4262485;27;20344;-54
2022/04/21 01:51:30;;;;;;;15.27;8.63;;;4.20;99.90;;;;;;4261706;27;20274;-61
2022/04/21 01:53:31;;;;;;;14.00;8.90;;;4.20;99.90;;;;;;4262838;27;20747;-56
2022/04/21 01:55:32;;;;;;;13.80;8.73;;;4.20;99.90;;;;;;4261446;27;20295;-54
2022/04/21 01:57:34;;;;;;;13.53;7.60;;;4.10;99.90;;;;;;4271702;27;20269;-53
2022/04/21 01:59:35;;;;;;;10.93;7.40;;;4.10;99.90;;;;;;4276289;27;20667;-54
2022/04/21 02:01:36;;;;;;;16.33;9.20;;;4.10;99.90;;;;;;4276593;27;20266;-53
2022/04/21 02:03:38;;;;;;;15.30;8.27;;;4.10;99.90;;;;;;4277202;27;20266;-53
2022/04/21 02:05:39;;;;;;;13.60;8.97;;;4.10;99.90;;;;;;4276837;27;20737;-57
2022/04/21 02:07:44;;;;;;;15.33;8.90;;;4.00;99.90;;;;;;4276371;27;20262;-55
2022/04/21 02:09:45;;;;;;;16.13;9.70;;;3.90;99.90;;;;;;4276361;27;20262;-50
2022/04/21 02:11:46;;;;;;;14.27;8.33;;;3.80;99.90;;;;;;4277443;27;20322;-57
2022/04/21 02:13:47;;;;;;;15.23;8.77;;;3.70;99.90;;;;;;4275374;27;20262;-54
2022/04/21 02:15:48;;;;;;;16.57;9.17;;;3.60;99.90;;;;;;4269603;27;20290;-55
2022/04/21 02:17:50;;;;;;;17.13;9.87;;;3.50;99.90;;;;;;4259161;27;20270;-55
2022/04/21 02:19:51;;;;;;;17.63;9.33;;;3.40;99.90;;;;;;4260272;27;20717;-53
2022/04/21 02:21:52;;;;;;;17.27;10.57;;;3.40;99.90;;;;;;4258897;27;20319;-52
2022/04/21 02:23:53;;;;;;;14.97;9.00;;;3.40;99.90;;;;;;4259649;27;20283;-53
2022/04/21 02:25:54;;;;;;;15.27;8.83;;;3.30;99.90;;;;;;4259031;27;20319;-52
2022/04/21 02:27:55;;;;;;;16.07;9.13;;;3.40;99.90;;;;;;4259999;27;20247;-53
2022/04/21 02:29:57;;;;;;;17.07;8.57;;;3.40;99.90;;;;;;4258949;27;20251;-54
2022/04/21 02:31:59;;;;;;;12.67;8.77;;;3.40;99.90;;;;;;4275711;27;20346;-49
2022/04/21 02:34:00;;;;;;;17.93;9.60;;;3.40;99.90;;;;;;4272824;27;21043;-54
2022/04/21 02:36:01;;;;;;;16.37;10.07;;;3.50;99.90;;;;;;4258424;27;20294;-55
2022/04/21 02:38:02;;;;;;;16.40;9.40;;;3.40;99.90;;;;;;4259006;27;20270;-49
2022/04/21 02:40:05;;;;;;;20.37;9.63;;;3.40;99.90;;;;;;4258709;27;20258;-53
2022/04/21 02:42:07;;;;;;;14.40;9.10;;;3.40;99.90;;;;;;4240424;27;20279;-56
2022/04/21 02:44:08;;;;;;;17.97;11.03;;;3.40;99.90;;;;;;4257738;27;20354;-54
2022/04/21 02:46:09;;;;;;;17.33;9.37;;;3.40;99.90;;;;;;4258808;27;20753;-55
2022/04/21 02:48:10;;;;;;;20.27;9.57;;;3.40;99.90;;;;;;4258389;27;20263;-50
2022/04/21 02:50:16;;;;;;;19.47;9.03;;;3.40;99.90;;;;;;4259717;27;20328;-52
2022/04/21 02:52:17;;;;;;;15.70;10.07;;;3.30;99.90;;;;;;4222941;27;20280;-51
2022/04/21 02:59:00;;;;;;;15.52;9.40;;;3.30;99.90;;;;;;4276834;27;20804;-49
2022/04/21 03:01:01;;;;;;;17.00;8.73;;;3.30;99.90;;;;;;4275027;27;20450;-54
2022/04/21 03:03:02;;;;;;;17.07;8.93;;;3.30;99.90;;;;;;4276283;27;21046;-53
2022/04/21 03:05:04;;;;;;;26.23;10.20;;;3.30;99.90;;;;;;4275705;27;20306;-53
2022/04/21 03:07:05;;;;;;;19.17;9.87;;;3.30;99.90;;;;;;4276395;27;20270;-55
2022/04/21 03:09:06;;;;;;;22.20;10.80;;;3.30;99.90;;;;;;4273903;27;20303;-56
2022/04/21 03:11:08;;;;;;;19.50;10.33;;;3.20;99.90;;;;;;4266515;27;20838;-57
2022/04/21 03:13:09;;;;;;;18.87;11.00;;;3.20;99.90;;;;;;4257882;27;20262;-56
2022/04/21 03:15:11;;;;;;;23.63;11.67;;;3.10;99.90;;;;;;4259337;27;20278;-52
2022/04/21 03:17:12;;;;;;;24.57;10.87;;;3.10;99.90;;;;;;4258127;27;20259;-58
2022/04/21 03:19:13;;;;;;;20.53;10.23;;;3.00;99.90;;;;;;4258489;27;20688;-58
2022/04/21 03:25:53;;;;;;;22.37;10.83;;;2.80;99.90;;;;;;4258862;27;20393;-53
2022/04/21 03:27:55;;;;;;;13.07;9.00;;;2.80;99.90;;;;;;4257763;27;20660;-66
2022/04/21 03:29:56;;;;;;;16.10;9.77;;;2.80;99.90;;;;;;4268356;27;20326;-58
2022/04/21 03:31:57;;;;;;;18.67;8.80;;;2.80;99.90;;;;;;4274663;27;20303;-55
2022/04/21 03:33:58;;;;;;;14.07;8.73;;;2.90;99.90;;;;;;4275807;27;20269;-54
2022/04/21 03:36:00;;;;;;;13.67;8.50;;;2.90;99.90;;;;;;4274308;27;20322;-59
2022/04/21 03:38:02;;;;;;;16.27;9.30;;;3.00;99.90;;;;;;4276032;27;20766;-56
2022/04/21 03:40:04;;;;;;;30.90;16.33;;;3.00;99.90;;;;;;4273274;27;20702;-50
2022/04/21 03:42:06;;;;;;;14.10;9.53;;;3.00;99.90;;;;;;4274825;27;20675;-52
2022/04/21 03:44:07;;;;;;;16.07;8.50;;;3.10;99.90;;;;;;4273916;27;20278;-58
2022/04/21 03:46:08;;;;;;;13.60;8.47;;;3.10;99.90;;;;;;4267484;27;20274;-56
2022/04/21 03:48:10;;;;;;;13.83;8.53;;;3.20;99.90;;;;;;4264060;27;20274;-48
2022/04/21 03:50:11;;;;;;;14.60;8.37;;;3.20;99.90;;;;;;4275317;27;20281;-58
2022/04/21 03:52:12;;;;;;;22.87;9.63;;;3.30;99.90;;;;;;4274765;27;20318;-56
2022/04/21 03:54:13;;;;;;;21.60;10.23;;;3.30;99.90;;;;;;4276122;27;20319;-57
2022/04/21 03:56:14;;;;;;;16.00;10.53;;;3.30;99.90;;;;;;4268918;27;20315;-57
2022/04/21 03:58:15;;;;;;;19.93;10.00;;;3.40;99.90;;;;;;4257453;27;20355;-62
2022/04/21 04:00:16;;;;;;;18.13;9.83;;;3.40;99.90;;;;;;4257554;27;20315;-56
2022/04/21 04:02:17;;;;;;;19.93;9.43;;;3.40;99.90;;;;;;4257339;27;20308;-57
2022/04/21 04:04:19;;;;;;;23.10;11.20;;;3.40;99.90;;;;;;4257980;27;20279;-57
2022/04/21 04:11:00;;;;;;;20.67;10.90;;;3.40;99.90;;;;;;4274115;27;20860;-67
2022/04/21 04:13:02;;;;;;;20.60;11.50;;;3.40;99.90;;;;;;4275100;27;20780;-57
2022/04/21 04:15:05;;;;;;;26.63;12.43;;;3.50;99.90;;;;;;4265086;27;20309;-57
2022/04/21 04:17:08;;;;;;;27.13;13.10;;;3.50;99.90;;;;;;4257018;27;20308;-57
2022/04/21 04:19:10;;;;;;;24.37;12.30;;;3.60;99.90;;;;;;4255605;27;20263;-60
2022/04/21 04:21:12;;;;;;;18.83;10.50;;;3.80;99.90;;;;;;4257584;27;20315;-58
2022/04/21 04:23:20;;;;;;;28.17;11.60;;;4.10;99.90;;;;;;4256379;27;20323;-56
2022/04/21 04:25:21;;;;;;;28.67;12.83;;;4.60;99.90;;;;;;4262367;27;20318;-54
2022/04/21 04:27:24;;;;;;;26.43;12.00;;;5.00;99.90;;;;;;4256487;27;20270;-56
2022/04/21 04:29:25;;;;;;;22.33;11.53;;;5.20;99.90;;;;;;4257866;27;20730;-57
2022/04/21 04:31:26;;;;;;;28.70;11.67;;;5.50;99.90;;;;;;4238389;27;20320;-56
2022/04/21 04:33:28;;;;;;;22.50;11.40;;;5.50;99.90;;;;;;4275013;27;20274;-56
2022/04/21 04:35:29;;;;;;;28.63;13.00;;;5.80;99.90;;;;;;4272815;27;20814;-54
2022/04/21 04:37:30;;;;;;;22.23;12.50;;;6.20;99.90;;;;;;4274750;27;20269;-57
2022/04/21 04:39:31;;;;;;;20.50;10.80;;;6.50;99.90;;;;;;4264530;27;20338;-66
2022/04/21 04:43:52;;;;;;;24.67;12.00;;;6.80;99.90;;;;;;4256505;27;20818;-59
2022/04/21 04:48:13;;;;;;;27.20;12.70;;;7.10;99.90;;;;;;4256120;27;20299;-62
2022/04/21 04:50:14;;;;;;;26.47;11.80;;;7.20;99.90;;;;;;4271427;27;20365;-64
2022/04/21 04:52:15;;;;;;;20.00;10.97;;;7.20;99.90;;;;;;4274464;27;20670;-56
2022/04/21 04:54:17;;;;;;;25.30;12.90;;;7.20;99.90;;;;;;4274054;27;20334;-67
2022/04/21 04:56:18;;;;;;;24.87;11.03;;;7.20;99.90;;;;;;4273835;27;20090;-60
2022/04/21 04:58:19;;;;;;;18.27;11.50;;;7.20;99.90;;;;;;4273016;27;20992;-61
2022/04/21 05:00:20;;;;;;;21.07;11.83;;;7.20;99.90;;;;;;4273807;27;20270;-68
2022/04/21 05:02:21;;;;;;;22.40;13.60;;;7.20;99.90;;;;;;4273646;27;20026;-64
2022/04/21 05:04:25;;;;;;;21.53;11.30;;;7.30;99.90;;;;;;4274348;27;20273;-62
2022/04/21 05:06:28;;;;;;;24.03;11.37;;;7.50;99.90;;;;;;4274233;27;20069;-56
2022/04/21 05:08:29;;;;;;;17.73;10.90;;;7.70;99.90;;;;;;4274315;27;20079;-55
2022/04/21 05:10:30;;;;;;;21.97;10.40;;;7.90;99.90;;;;;;4273214;27;20558;-55
2022/04/21 05:12:31;;;;;;;25.40;12.23;;;7.90;99.90;;;;;;4272374;27;20086;-56
2022/04/21 05:14:33;;;;;;;27.60;11.47;;;8.30;99.90;;;;;;4255743;27;20443;-63
2022/04/21 05:16:42;;;;;;;24.03;12.57;;;8.70;99.90;;;;;;4257489;27;20064;-50
2022/04/21 05:18:43;;;;;;;28.03;12.93;;;9.10;99.90;;;;;;4255847;27;20047;-53
2022/04/21 05:20:45;;;;;;;21.13;11.70;;;9.50;99.90;;;;;;4256488;27;20547;-60
2022/04/21 05:22:47;;;;;;;39.17;14.67;;;10.10;99.90;;;;;;4261298;27;20094;-59
2022/04/21 05:24:51;;;;;;;33.33;13.07;;;10.90;99.60;;;;;;4261984;27;20034;-57
2022/04/21 05:26:53;;;;;;;28.50;14.00;;;11.50;98.20;;;;;;4265289;27;20034;-56
2022/04/21 05:28:56;;;;;;;23.43;11.70;;;11.90;96.60;;;;;;4272631;27;20513;-55
2022/04/21 05:31:01;;;;;;;33.17;15.00;;;11.90;95.80;;;;;;4273577;27;20446;-52
2022/04/21 05:33:03;;;;;;;24.43;11.70;;;11.90;95.30;;;;;;4273665;27;20079;-56
2022/04/21 05:35:04;;;;;;;21.10;12.27;;;11.90;95.10;;;;;;4278516;27;20050;-57
2022/04/21 05:37:06;;;;;;;24.23;11.50;;;11.80;94.50;;;;;;4275461;27;20050;-58
2022/04/21 05:39:07;;;;;;;23.30;11.00;;;11.70;94.00;;;;;;4277698;27;20026;-56
2022/04/21 05:41:09;;;;;;;31.67;13.33;;;11.50;93.50;;;;;;4276667;27;20100;-56
2022/04/21 05:43:14;;;;;;;22.23;10.53;;;11.70;93.80;;;;;;4276987;27;20114;-60
2022/04/21 05:45:16;;;;;;;20.10;11.37;;;12.00;93.10;;;;;;4275238;27;20038;-52
2022/04/21 05:47:19;;;;;;;29.33;13.83;;;12.60;92.40;;;;;;4277468;27;20494;-52
2022/04/21 05:49:20;;;;;;;24.53;11.23;;;13.20;91.60;;;;;;4275187;27;20098;-62
2022/04/21 05:51:21;;;;;;;20.37;9.90;;;13.90;90.60;;;;;;4276598;27;20034;-54
2022/04/21 05:53:24;;;;;;;12.90;9.97;;;14.50;88.50;;;;;;4257686;27;20115;-54
2022/04/21 05:55:26;;;;;;;16.93;9.33;;;15.00;85.80;;;;;;4258180;27;20158;-57
2022/04/21 05:57:27;;;;;;;17.90;9.37;;;15.50;83.30;;;;;;4276504;27;20046;-56
2022/04/21 05:59:28;;;;;;;20.43;10.63;;;16.10;81.60;;;;;;4277434;27;20042;-57
2022/04/21 06:01:30;;;;;;;26.07;10.10;;;16.80;79.10;;;;;;4275671;27;20042;-55
2022/04/21 06:03:31;;;;;;;13.37;7.77;;;17.10;76.70;;;;;;4275870;27;20042;-57
2022/04/21 06:05:33;;;;;;;15.27;8.90;;;17.30;75.20;;;;;;4277109;27;20042;-60
2022/04/21 06:07:34;;;;;;;18.17;8.77;;;17.30;74.10;;;;;;4275550;27;20470;-56
2022/04/21 06:09:35;;;;;;;10.80;7.07;;;17.60;73.50;;;;;;4277552;27;20864;-58
2022/04/21 06:11:36;;;;;;;13.70;6.80;;;18.00;71.90;;;;;;4275220;27;20098;-61
2022/04/21 06:13:37;;;;;;;13.07;7.07;;;18.20;70.50;;;;;;4276483;27;20109;-57
2022/04/21 06:15:39;;;;;;;11.07;7.47;;;18.30;69.10;;;;;;4275463;27;20074;-58
2022/04/21 06:17:42;;;;;;;11.27;6.88;;;18.50;68.50;;;;;;4276244;27;20870;-63
2022/04/21 06:19:43;;;;;;;11.48;7.50;;;18.40;67.70;;;;;;4275904;27;20086;-54
2022/04/21 06:21:44;;;;;;;11.32;8.00;;;18.30;67.70;;;;;;4276909;27;20022;-59
2022/04/21 06:23:46;;;;;;;13.70;7.88;;;18.40;67.10;;;;;;4276079;27;20042;-57
2022/04/21 06:25:48;;;;;;;15.38;8.35;;;18.60;66.60;;;;;;4276987;27;20026;-57
2022/04/21 06:27:52;;;;;;;10.65;6.38;;;18.50;66.80;;;;;;4275256;27;21105;-57
2022/04/21 06:29:53;;;;;;;13.15;6.05;;;18.60;65.80;;;;;;4276401;27;20022;-54
2022/04/21 06:31:54;;;;;;;12.30;6.43;;;18.60;65.40;;;;;;4275889;27;20803;-58
2022/04/21 06:33:57;;;;;;;13.75;9.82;;;18.50;64.70;;;;;;4275594;27;20086;-58
2022/04/21 06:36:03;;;;;;;11.27;7.18;;;18.10;64.10;;;;;;4276403;27;20038;-58
2022/04/21 06:38:06;;;;;;;7.13;6.00;;;18.10;64.30;;;;;;4275638;27;20094;-62
2022/04/21 06:40:08;;;;;;;7.78;5.75;;;17.90;64.30;;;;;;4275807;27;20493;-67
2022/04/21 06:42:09;;;;;;;7.05;5.65;;;17.60;64.70;;;;;;4274921;27;20027;-57
2022/04/21 06:48:50;;;;;;;7.50;5.75;;;17.70;64.10;;;;;;4276270;27;20034;-56
2022/04/21 06:50:52;;;;;;;11.18;6.53;;;17.20;64.30;;;;;;4275492;27;20359;-57
2022/04/21 06:52:54;;;;;;;7.68;5.68;;;17.00;64.60;;;;;;4276363;27;20082;-53
2022/04/21 06:54:55;;;;;;;12.70;8.20;;;16.70;64.50;;;;;;4274893;27;20602;-59
2022/04/21 06:56:56;;;;;;;8.75;6.32;;;16.40;65.00;;;;;;4276322;27;20095;-54
2022/04/21 06:58:57;;;;;;;7.47;5.97;;;15.90;64.80;;;;;;4274964;27;20042;-58
2022/04/21 07:00:59;;;;;;;10.65;6.22;;;15.30;65.40;;;;;;4276134;27;20038;-56
2022/04/21 07:03:00;;;;;;;15.88;5.82;;;14.90;66.30;;;;;;4275172;27;20083;-61
2022/04/21 07:05:12;;;;;;;10.23;6.47;;;14.40;66.80;;;;;;4277147;27;20079;-56
2022/04/21 07:07:13;;;;;;;8.50;6.28;;;14.10;67.10;;;;;;4273457;27;20042;-58
2022/04/21 07:09:15;;;;;;;8.23;5.57;;;14.00;67.80;;;;;;4275859;27;20112;-66
2022/04/21 07:11:20;;;;;;;6.27;5.33;;;13.70;67.50;;;;;;4274968;27;20538;-56
2022/04/21 07:13:21;;;;;;;7.67;5.70;;;13.60;67.50;;;;;;4275410;27;20039;-67
2022/04/21 07:15:22;;;;;;;9.90;6.00;;;13.40;67.60;;;;;;4274409;27;20094;-59
2022/04/21 07:17:24;;;;;;;9.37;6.27;;;13.50;67.80;;;;;;4274637;27;20711;-58
2022/04/21 07:19:25;;;;;;;9.57;5.87;;;13.40;67.90;;;;;;4275670;27;20494;-57
2022/04/21 07:21:26;;;;;;;8.10;5.53;;;13.40;67.90;;;;;;4274781;27;20085;-57
2022/04/21 07:23:28;;;;;;;7.93;5.37;;;13.30;67.30;;;;;;4275700;27;20034;-57
2022/04/21 07:25:29;;;;;;;7.93;5.90;;;13.10;67.50;;;;;;4274662;27;20034;-57
2022/04/21 07:27:30;;;;;;;10.17;5.20;;;12.80;67.50;;;;;;4276007;27;20107;-58
2022/04/21 07:29:31;;;;;;;9.27;5.27;;;12.60;68.00;;;;;;4273679;27;20067;-59
2022/04/21 07:31:32;;;;;;;11.20;5.67;;;12.50;68.30;;;;;;4275022;27;20083;-57
2022/04/21 07:33:33;;;;;;;10.03;6.33;;;12.50;68.50;;;;;;4273813;27;20030;-57
2022/04/21 07:35:34;;;;;;;12.77;6.87;;;12.50;68.40;;;;;;4275527;27;20557;-58
2022/04/21 07:37:37;;;;;;;10.30;6.17;;;12.50;68.50;;;;;;4273591;27;20042;-57
2022/04/21 07:39:40;;;;;;;14.30;6.10;;;12.50;68.30;;;;;;4275032;27;20102;-55
2022/04/21 07:41:42;;;;;;;9.30;6.17;;;12.50;68.10;;;;;;4273718;27;20105;-56
2022/04/21 07:43:44;;;;;;;13.70;5.53;;;12.50;68.20;;;;;;4256107;27;20527;-55
2022/04/21 07:45:45;;;;;;;8.53;5.17;;;12.50;67.90;;;;;;4273932;27;20031;-56
2022/04/21 07:47:46;;;;;;;12.17;6.50;;;12.60;68.10;;;;;;4274873;27;20029;-64
2022/04/21 07:49:48;;;;;;;11.67;6.57;;;12.60;68.10;;;;;;4275186;27;20909;-57
2022/04/21 07:51:49;;;;;;;8.73;5.80;;;12.60;68.10;;;;;;4274342;27;20142;-57
2022/04/21 07:53:50;;;;;;;7.83;5.63;;;12.70;67.80;;;;;;4274883;27;20471;-54
2022/04/21 07:55:52;;;;;;;9.67;5.30;;;12.70;67.70;;;;;;4273435;27;20034;-55
2022/04/21 07:57:55;;;;;;;9.10;5.50;;;12.70;67.20;;;;;;4275166;27;20038;-57
2022/04/21 07:59:57;;;;;;;10.47;6.27;;;12.70;67.10;;;;;;4274262;27;20030;-54
2022/04/21 08:01:58;;;;;;;9.13;5.80;;;12.80;67.10;;;;;;4275421;27;20534;-53
2022/04/21 08:04:02;;;;;;;6.40;4.63;;;12.80;66.50;;;;;;4273376;27;20078;-58
2022/04/21 08:06:06;;;;;;;7.47;4.17;;;12.80;65.90;;;;;;4275661;27;20078;-58
2022/04/21 08:08:10;;;;;;;12.27;5.27;;;12.70;65.70;;;;;;4272927;27;20038;-58
2022/04/21 08:10:13;;;;;;;6.00;4.70;;;12.70;65.90;;;;;;4275399;27;20162;-58
2022/04/21 08:12:14;;;;;;;6.90;4.53;;;12.70;66.20;;;;;;4273261;27;20034;-56
2022/04/21 08:14:16;;;;;;;7.80;5.53;;;12.80;66.10;;;;;;4275270;27;20014;-58
2022/04/21 08:16:18;;;;;;;8.73;4.87;;;13.00;65.90;;;;;;4272600;27;20046;-55
2022/04/21 08:18:20;;;;;;;7.17;4.60;;;12.90;65.50;;;;;;4275004;27;20026;-56
2022/04/21 08:20:22;;;;;;;7.23;4.60;;;12.90;65.30;;;;;;4274067;27;20034;-57
2022/04/21 08:22:23;;;;;;;6.47;4.20;;;12.80;65.30;;;;;;4255111;27;20123;-57
2022/04/21 08:33:43;;;;;;;8.87;4.57;;;12.30;65.90;;;;;;4274361;27;20090;-54
2022/04/21 08:35:49;;;;;;;6.27;4.63;;;12.20;66.20;;;;;;4274288;27;20546;-60
2022/04/21 08:37:50;;;;;;;6.47;4.50;;;12.10;66.60;;;;;;4273101;27;20542;-56
2022/04/21 08:39:52;;;;;;;7.00;4.40;;;12.10;67.20;;;;;;4274775;27;20110;-58
2022/04/21 08:42:00;;;;;;;12.07;4.63;;;12.00;67.30;;;;;;4255499;27;20030;-53
2022/04/21 08:44:03;;;;;;;6.57;4.80;;;11.90;67.40;;;;;;4274122;27;20030;-58
2022/04/21 08:46:04;;;;;;;11.17;5.20;;;11.80;67.60;;;;;;4274242;27;20067;-56
2022/04/21 08:48:07;;;;;;;11.27;5.57;;;11.80;68.10;;;;;;4273811;27;20095;-55
2022/04/21 08:50:12;;;;;;;9.53;5.50;;;11.70;68.30;;;;;;4274279;27;20049;-52
2022/04/21 08:52:14;;;;;;;8.67;4.37;;;11.80;68.70;;;;;;4273098;27;20189;-62
2022/04/21 08:54:16;;;;;;;9.40;5.00;;;11.80;68.80;;;;;;4275098;27;20022;-59
2022/04/21 08:56:18;;;;;;;11.13;6.20;;;11.90;68.90;;;;;;4273235;27;20026;-61
2022/04/21 08:58:20;;;;;;;12.03;5.90;;;11.90;69.00;;;;;;4273779;27;20042;-55
2022/04/21 09:00:21;;;;;;;11.13;5.60;;;11.80;68.90;;;;;;4273505;27;20718;-57
2022/04/21 09:02:33;;;;;;;6.17;4.63;;;11.80;69.20;;;;;;4274456;27;20026;-57
2022/04/21 09:04:34;;;;;;;7.70;5.60;;;11.80;69.20;;;;;;4273513;27;20059;-56
2022/04/21 09:06:38;;;;;;;10.97;5.00;;;11.80;69.10;;;;;;4275509;27;20082;-57
2022/04/21 09:08:39;;;;;;;9.60;4.80;;;11.80;69.10;;;;;;4276616;27;20030;-58
2022/04/21 09:10:42;;;;;;;7.20;5.00;;;11.90;69.10;;;;;;4278095;27;20034;-65
2022/04/21 09:12:52;;;;;;;7.87;4.70;;;12.00;69.10;;;;;;4276169;27;20046;-54
2022/04/21 09:14:53;;;;;;;4.93;4.32;;;12.10;68.70;;;;;;4278375;27;20510;-56
2022/04/21 09:17:02;;;;;;;9.37;6.37;;;12.20;68.50;;;;;;4275685;27;20042;-57
2022/04/21 09:19:03;;;;;;;14.73;5.70;;;12.40;68.40;;;;;;4276863;27;20038;-57
2022/04/21 09:21:14;;;;;;;5.70;4.70;;;12.50;68.10;;;;;;4276039;27;20030;-56
2022/04/21 09:23:15;;;;;;;;;;;12.60;67.30;;;;;;4277233;27;20022;-52
2022/04/21 09:25:16;;;;;;;9.67;6.10;;;12.70;66.80;;;;;;4276427;27;20286;-57
2022/04/21 09:27:17;;;;;;;4.83;3.90;;;12.90;67.70;;;;;;4276730;27;20061;-51
2022/04/21 09:29:33;;;;;;;6.00;4.50;;;13.00;67.30;;;;;;4277111;27;20094;-53
2022/04/21 09:31:40;;;;;;;5.80;4.50;;;13.00;67.30;;;;;;4275420;27;20072;-54
2022/04/21 09:33:41;;;;;;;8.33;4.17;;;13.00;67.00;;;;;;4277337;27;20470;-55
2022/04/21 09:35:44;;;;;;;8.67;4.67;;;13.10;67.80;;;;;;4276994;27;20055;-57
2022/04/21 09:37:48;;;;;;;9.10;4.77;;;13.20;66.90;;;;;;4277043;27;20107;-57
2022/04/21 09:39:50;;;;;;;5.70;4.43;;;13.20;66.80;;;;;;4276137;27;20403;-57
2022/04/21 09:41:55;;;;;;;8.47;4.93;;;13.20;66.90;;;;;;4258321;27;20084;-56
2022/04/21 09:46:07;;;;;;;9.60;4.37;;;13.20;66.70;;;;;;4276148;27;20026;-55
2022/04/21 09:46:28;;;;;;;7.07;4.20;;;13.00;66.40;;;;;;4277018;27;20075;-55
2022/04/21 09:48:30;;;;;;;7.80;4.43;;;12.90;66.90;;;;;;4275415;27;20087;-57
2022/04/21 09:50:32;;;;;;;5.93;3.97;;;12.90;67.00;;;;;;4277103;27;20071;-53
2022/04/21 09:52:36;;;;;;;7.23;4.33;;;12.80;67.10;;;;;;4276033;27;20051;-65
2022/04/21 09:54:39;;;;;;;6.67;4.67;;;12.90;67.10;;;;;;4277168;27;20022;-55
2022/04/21 09:56:41;;;;;;;6.07;4.27;;;12.90;67.20;;;;;;4274983;27;20946;-57
2022/04/21 09:58:43;;;;;;;4.77;4.13;;;12.90;67.00;;;;;;4276901;27;20046;-53
2022/04/21 10:00:45;;;;;;;6.40;3.97;;;12.80;67.00;;;;;;4276331;27;20063;-56
2022/04/21 10:02:50;;;;;;;7.50;4.77;;;12.80;67.20;;;;;;4277567;27;20026;-58
2022/04/21 10:04:52;;;;;;;11.43;5.20;;;12.90;67.30;;;;;;4275460;27;20086;-56
2022/04/21 10:06:53;;;;;;;6.03;4.70;;;13.00;67.20;;;;;;4276302;27;20060;-56
2022/04/21 10:08:56;;;;;;;9.03;5.33;;;13.00;66.70;;;;;;4274888;27;20222;-57
2022/04/21 10:10:57;;;;;;;7.77;4.40;;;12.90;66.60;;;;;;4257084;27;20103;-53
2022/04/21 10:13:00;;;;;;;6.40;3.73;;;12.80;66.30;;;;;;4275277;27;20034;-55
2022/04/21 10:15:02;;;;;;;5.80;3.80;;;12.80;66.40;;;;;;4276335;27;20082;-55
2022/04/21 10:17:06;;;;;;;12.17;4.43;;;12.80;66.50;;;;;;4276630;27;20474;-56
2022/04/21 10:19:08;;;;;;;8.30;4.07;;;12.80;66.40;;;;;;4275484;27;20030;-57
2022/04/21 10:21:10;;;;;;;5.47;4.20;;;12.90;66.40;;;;;;4276357;27;20070;-55
2022/04/21 10:23:16;;;;;;;5.67;3.77;;;13.00;66.40;;;;;;4275324;27;20071;-67
2022/04/21 10:25:23;;;;;;;7.80;3.80;;;13.00;66.30;;;;;;4276411;27;20034;-65
2022/04/21 10:27:46;;;;;;;5.03;3.73;;;13.10;66.30;;;;;;4275126;27;20038;-57
2022/04/21 10:29:51;;;;;;;4.33;3.80;;;13.10;65.50;;;;;;4276813;27;20016;-55
2022/04/21 10:32:00;;;;;;;4.57;3.80;;;13.00;65.60;;;;;;4275474;27;20350;-54
2022/04/21 10:34:04;;;;;;;6.50;4.10;;;13.10;65.90;;;;;;4276357;27;20558;-57
2022/04/21 10:36:05;;;;;;;7.30;4.30;;;13.10;65.70;;;;;;4274709;27;20050;-58
2022/04/21 10:38:18;;;;;;;7.60;4.00;;;13.10;65.60;;;;;;4276355;27;20047;-55
2022/04/21 10:40:23;;;;;;;10.47;4.70;;;13.10;65.40;;;;;;4274826;27;20083;-64
2022/04/21 10:42:24;;;;;;;6.83;3.77;;;13.20;65.50;;;;;;4276573;27;20086;-57
2022/04/21 10:44:28;;;;;;;5.80;4.37;;;13.30;65.20;;;;;;4274790;27;20886;-56
2022/04/21 10:46:30;;;;;;;3.90;3.50;;;13.40;65.00;;;;;;4275497;27;20088;-57
2022/04/21 10:48:42;;;;;;;7.03;3.83;;;13.50;64.50;;;;;;4274777;27;20022;-57
2022/04/21 10:50:44;;;;;;;7.33;3.80;;;13.60;64.10;;;;;;4275622;27;20046;-60
2022/04/21 10:57:28;;;;;;;4.40;3.70;;;13.60;64.20;;;;;;4275231;27;21128;-56
2022/04/21 10:59:47;;;;;;;6.27;3.70;;;13.60;63.90;;;;;;4275411;27;20042;-57
2022/04/21 11:02:11;;;;;;;8.20;4.30;;;13.70;64.00;;;;;;4274448;27;20030;-57
2022/04/21 11:04:19;;;;;;;8.00;3.90;;;13.80;63.90;;;;;;4275851;27;20505;-55
2022/04/21 11:06:36;;;;;;;5.50;3.70;;;13.60;63.40;;;;;;4274250;27;20090;-56
2022/04/21 11:08:38;;;;;;;4.17;3.73;;;13.30;63.50;;;;;;4275684;27;20363;-58
2022/04/21 11:10:43;;;;;;;6.87;3.70;;;13.20;64.30;;;;;;4274854;27;20080;-61
2022/04/21 11:12:46;;;;;;;5.53;3.10;;;13.20;64.10;;;;;;4276231;27;20060;-57
2022/04/21 11:14:47;;;;;;;7.70;5.93;;;13.20;64.10;;;;;;4274383;27;20026;-53
2022/04/21 11:16:48;;;;;;;6.23;4.27;;;13.30;64.00;;;;;;4275604;27;20083;-56
2022/04/21 11:18:49;;;;;;;6.73;4.30;;;13.30;64.00;;;;;;4274259;27;20018;-57
2022/04/21 11:20:51;;;;;;;5.17;3.93;;;13.50;63.90;;;;;;4275989;27;20019;-61